createdAt,value
2023-07-03T00:00:20.228Z,8.20
2023-07-03T00:03:14.834Z,6.30
2023-07-03T00:05:46.513Z,11.20
2023-07-03T00:08:17.097Z,9.00
2023-07-03T00:10:45.012Z,8.00
2023-07-03T00:13:13.046Z,10.80
2023-07-03T00:15:41.150Z,6.40
2023-07-03T00:18:09.131Z,6.60
2023-07-03T00:20:37.335Z,9.70
2023-07-03T00:23:05.821Z,6.50
2023-07-03T00:25:33.783Z,4.30
2023-07-03T00:28:01.690Z,5.00
2023-07-03T00:30:29.640Z,4.90
2023-07-03T00:32:57.635Z,6.00
2023-07-03T00:35:25.712Z,8.00
2023-07-03T00:37:53.645Z,8.60
2023-07-03T00:40:21.597Z,5.80
2023-07-03T00:42:52.018Z,3.80
2023-07-03T00:45:21.640Z,4.40
2023-07-03T00:47:50.625Z,3.90
2023-07-03T00:50:19.250Z,3.80
2023-07-03T00:52:53.871Z,3.20
2023-07-03T00:55:24.044Z,5.60
2023-07-03T00:57:52.533Z,4.20
2023-07-03T01:00:22.535Z,9.10
2023-07-03T01:03:11.819Z,8.80
2023-07-03T01:05:46.688Z,5.20
2023-07-03T01:08:15.036Z,4.30
2023-07-03T01:10:44.788Z,5.10
2023-07-03T01:13:17.864Z,6.30
2023-07-03T01:15:47.846Z,7.30
2023-07-03T01:18:19.374Z,5.00
2023-07-03T01:21:07.794Z,5.90
2023-07-03T01:23:50.580Z,6.30
2023-07-03T01:26:20.366Z,4.80
2023-07-03T01:28:54.863Z,5.40
2023-07-03T01:31:24.643Z,5.00
2023-07-03T01:33:55.845Z,4.90
2023-07-03T01:36:24.790Z,6.10
2023-07-03T01:38:54.696Z,10.80
2023-07-03T01:41:23.439Z,8.90
2023-07-03T01:43:52.022Z,3.90
2023-07-03T01:46:20.375Z,5.00
2023-07-03T01:48:48.393Z,4.20
2023-07-03T01:51:26.057Z,4.50
2023-07-03T01:54:02.792Z,6.70
2023-07-03T01:56:36.220Z,8.50
2023-07-03T01:59:11.249Z,6.70
2023-07-03T02:01:56.708Z,6.50
2023-07-03T02:04:33.962Z,4.70
2023-07-03T02:07:04.822Z,6.60
2023-07-03T02:09:33.640Z,7.30
2023-07-03T02:12:07.158Z,3.90
2023-07-03T02:14:36.373Z,3.50
2023-07-03T02:17:07.544Z,7.10
2023-07-03T02:19:36.285Z,3.20
2023-07-03T02:22:04.716Z,6.00
2023-07-03T02:24:33.576Z,4.30
2023-07-03T02:27:01.620Z,4.90
2023-07-03T02:29:32.255Z,8.40
2023-07-03T02:32:00.241Z,6.70
2023-07-03T02:34:29.497Z,4.30
2023-07-03T02:37:00.172Z,5.10
2023-07-03T02:39:30.579Z,4.40
2023-07-03T02:41:58.713Z,4.00
2023-07-03T02:44:27.272Z,9.50
2023-07-03T02:46:55.306Z,8.50
2023-07-03T02:49:29.008Z,8.00
2023-07-03T02:51:58.136Z,4.00
2023-07-03T02:54:26.171Z,4.10
2023-07-03T02:56:54.266Z,4.60
2023-07-03T02:59:23.041Z,4.30
2023-07-03T03:01:51.603Z,6.10
2023-07-03T03:04:20.351Z,3.90
2023-07-03T03:06:48.857Z,8.10
2023-07-03T03:09:16.778Z,6.90
2023-07-03T03:11:44.761Z,4.70
2023-07-03T03:14:14.408Z,6.80
2023-07-03T03:16:42.428Z,7.70
2023-07-03T03:19:10.605Z,6.20
2023-07-03T03:21:39.557Z,5.20
2023-07-03T03:24:07.940Z,8.00
2023-07-03T03:26:35.861Z,7.60
2023-07-03T03:29:03.893Z,7.40
2023-07-03T03:31:32.182Z,5.80
2023-07-03T03:34:03.531Z,7.30
2023-07-03T03:36:34.348Z,5.20
2023-07-03T03:39:02.548Z,5.80
2023-07-03T03:41:31.474Z,5.20
2023-07-03T03:43:59.598Z,4.70
2023-07-03T03:46:27.540Z,3.70
2023-07-03T03:48:56.735Z,5.70
2023-07-03T03:51:25.606Z,5.60
2023-07-03T03:53:54.431Z,7.80
2023-07-03T03:56:22.942Z,5.50
2023-07-03T03:58:51.581Z,4.90
2023-07-03T04:01:19.819Z,5.50
2023-07-03T04:03:47.894Z,10.50
2023-07-03T04:06:20.265Z,5.10
2023-07-03T04:08:48.848Z,4.80
2023-07-03T04:11:16.798Z,5.10
2023-07-03T04:13:44.824Z,5.90
2023-07-03T04:16:13.670Z,6.00
2023-07-03T04:18:41.979Z,4.50
2023-07-03T04:21:10.153Z,5.10
2023-07-03T04:23:38.624Z,6.90
2023-07-03T04:26:06.860Z,8.70
2023-07-03T04:28:35.301Z,5.90
2023-07-03T04:31:03.909Z,6.10
2023-07-03T04:33:31.942Z,5.00
2023-07-03T04:36:00.028Z,5.00
2023-07-03T04:38:28.179Z,5.40
2023-07-03T04:40:58.867Z,5.00
2023-07-03T04:43:26.818Z,6.80
2023-07-03T04:45:57.419Z,9.50
2023-07-03T04:48:25.892Z,7.50
2023-07-03T04:50:53.830Z,6.80
2023-07-03T04:53:22.655Z,5.90
2023-07-03T04:55:52.252Z,5.90
2023-07-03T05:08:28.550Z,6.10
2023-07-03T05:10:56.549Z,6.10
2023-07-03T05:13:24.524Z,7.30
2023-07-03T05:15:52.818Z,8.50
2023-07-03T05:18:21.556Z,5.60
2023-07-03T05:20:50.437Z,7.10
2023-07-03T05:23:18.655Z,7.20
2023-07-03T05:25:47.731Z,7.80
2023-07-03T05:28:15.804Z,8.00
2023-07-03T05:30:43.980Z,5.40
2023-07-03T05:33:12.209Z,8.50
2023-07-03T05:35:49.722Z,4.80
2023-07-03T05:38:20.225Z,4.90
2023-07-03T05:40:51.364Z,4.60
2023-07-03T05:43:19.978Z,5.90
2023-07-03T05:45:49.868Z,10.00
2023-07-03T05:48:18.862Z,10.00
2023-07-03T05:50:46.921Z,4.20
2023-07-03T05:53:15.016Z,5.30
2023-07-03T05:55:44.762Z,6.20
2023-07-03T05:58:12.747Z,6.00
2023-07-03T06:00:41.427Z,4.00
2023-07-03T06:03:12.545Z,4.90
2023-07-03T06:05:40.816Z,4.90
2023-07-03T06:08:08.963Z,7.80
2023-07-03T06:10:36.962Z,4.90
2023-07-03T06:13:05.522Z,10.40
2023-07-03T06:15:35.810Z,6.10
2023-07-03T06:18:04.857Z,6.60
2023-07-03T06:20:34.555Z,8.00
2023-07-03T06:23:02.605Z,7.30
2023-07-03T06:25:30.711Z,5.50
2023-07-03T06:27:58.611Z,5.90
2023-07-03T06:30:26.781Z,4.30
2023-07-03T06:32:55.900Z,6.00
2023-07-03T06:35:24.185Z,5.50
2023-07-03T06:37:57.264Z,8.50
2023-07-03T06:40:26.748Z,3.50
2023-07-03T06:42:54.899Z,5.10
2023-07-03T06:45:23.137Z,4.30
2023-07-03T06:47:51.493Z,9.00
2023-07-03T06:50:19.476Z,6.00
2023-07-03T06:52:48.489Z,9.10
2023-07-03T06:55:16.567Z,3.40
2023-07-03T06:57:46.753Z,6.50
2023-07-03T07:00:15.097Z,3.60
2023-07-03T07:02:43.130Z,4.30
2023-07-03T07:05:11.402Z,5.20
2023-07-03T07:07:39.749Z,7.20
2023-07-03T07:10:10.913Z,5.50
2023-07-03T07:12:39.060Z,5.10
2023-07-03T07:15:08.260Z,3.80
2023-07-03T07:20:10.871Z,3.00
2023-07-03T07:22:41.023Z,6.60
2023-07-03T07:25:09.505Z,5.70
2023-07-03T07:27:38.695Z,3.60
2023-07-03T07:30:07.475Z,4.10
2023-07-03T07:32:35.670Z,4.60
2023-07-03T07:35:03.860Z,6.90
2023-07-03T07:37:31.913Z,4.60
2023-07-03T07:39:59.827Z,3.70
2023-07-03T07:42:30.436Z,6.30
2023-07-03T07:44:58.615Z,6.00
2023-07-03T07:47:26.569Z,6.10
2023-07-03T07:49:54.529Z,4.30
2023-07-03T07:52:25.076Z,5.20
2023-07-03T07:54:57.731Z,8.60
2023-07-03T07:57:27.149Z,7.90
2023-07-03T07:59:55.146Z,5.40
2023-07-03T08:02:23.300Z,5.40
2023-07-03T08:04:53.396Z,6.10
2023-07-03T08:07:24.255Z,3.80
2023-07-03T08:09:52.182Z,6.20
2023-07-03T08:12:20.352Z,5.10
2023-07-03T08:14:48.365Z,4.10
2023-07-03T08:17:16.673Z,5.00
2023-07-03T08:19:44.578Z,5.70
2023-07-03T08:22:12.513Z,5.70
2023-07-03T08:24:41.347Z,6.70
2023-07-03T08:27:10.202Z,4.70
2023-07-03T08:29:38.122Z,4.70
2023-07-03T08:32:10.740Z,5.20
2023-07-03T08:34:38.803Z,4.30
2023-07-03T08:37:08.669Z,7.50
2023-07-03T08:39:40.234Z,6.30
2023-07-03T08:42:23.112Z,3.60
2023-07-03T08:44:52.232Z,3.70
2023-07-03T08:47:27.441Z,4.40
2023-07-03T08:52:45.986Z,4.40
2023-07-03T08:55:19.701Z,5.40
2023-07-03T08:57:47.734Z,6.00
2023-07-03T09:00:18.976Z,7.10
2023-07-03T09:03:10.460Z,8.40
2023-07-03T09:06:05.799Z,12.40
2023-07-03T09:08:47.073Z,7.60
2023-07-03T09:11:18.334Z,9.20
2023-07-03T09:13:51.335Z,9.70
2023-07-03T09:16:24.897Z,8.60
2023-07-03T09:18:59.105Z,10.40
2023-07-03T09:21:29.526Z,14.20
2023-07-03T09:24:04.453Z,9.80
2023-07-03T09:26:41.243Z,12.40
2023-07-03T09:29:11.663Z,8.40
2023-07-03T09:31:40.774Z,12.00
2023-07-03T09:34:09.835Z,9.00
2023-07-03T09:36:41.580Z,11.50
2023-07-03T09:39:13.100Z,12.80
2023-07-03T09:41:42.038Z,9.70
2023-07-03T09:44:14.902Z,9.90
2023-07-03T09:46:43.315Z,10.00
2023-07-03T09:49:22.617Z,16.40
2023-07-03T09:51:52.800Z,9.20
2023-07-03T09:54:23.435Z,12.60
2023-07-03T09:56:51.414Z,11.50
2023-07-03T09:59:20.849Z,15.70
2023-07-03T10:07:08.196Z,12.90
2023-07-03T10:12:24.008Z,13.70
2023-07-03T10:15:14.753Z,17.60
2023-07-03T10:17:48.667Z,12.10
2023-07-03T10:20:26.367Z,14.80
2023-07-03T10:22:59.655Z,10.60
2023-07-03T10:25:42.712Z,15.00
2023-07-03T10:28:19.136Z,11.60
2023-07-03T10:30:53.666Z,13.50
2023-07-03T10:33:28.464Z,13.60
2023-07-03T10:35:57.167Z,17.00
2023-07-03T10:38:38.135Z,13.20
2023-07-03T10:41:16.022Z,13.10
2023-07-03T10:43:52.619Z,15.10
2023-07-03T10:46:47.826Z,12.40
2023-07-03T10:49:25.266Z,13.60
2023-07-03T10:52:14.858Z,13.20
2023-07-03T10:54:53.028Z,14.00
2023-07-03T10:57:34.589Z,12.10
2023-07-03T11:00:13.544Z,12.40
2023-07-03T11:03:00.300Z,17.00
2023-07-03T11:05:43.108Z,20.50
2023-07-03T11:08:37.401Z,16.00
2023-07-03T11:11:18.867Z,11.70
2023-07-03T11:14:03.580Z,10.50
2023-07-03T11:16:59.236Z,23.30
2023-07-03T11:19:53.222Z,20.40
2023-07-03T11:25:17.920Z,12.80
2023-07-03T11:30:26.955Z,12.30
2023-07-03T11:32:58.530Z,10.90
2023-07-03T11:41:00.157Z,8.90
2023-07-03T11:43:33.375Z,12.10
2023-07-03T11:46:05.565Z,15.00
2023-07-03T11:48:43.655Z,10.50
2023-07-03T11:51:21.686Z,15.40
2023-07-03T11:53:54.756Z,15.20
2023-07-03T11:56:31.990Z,12.60
2023-07-03T11:59:30.468Z,14.60
2023-07-03T12:02:20.086Z,11.80
2023-07-03T12:04:53.986Z,15.80
2023-07-03T12:08:23.471Z,15.00
2023-07-03T12:10:50.044Z,9.10
2023-07-03T12:13:42.131Z,10.80
2023-07-03T12:16:30.880Z,14.10
2023-07-03T12:19:07.021Z,17.20
2023-07-03T12:21:37.644Z,16.40
2023-07-03T12:24:19.965Z,16.10
2023-07-03T12:27:02.364Z,14.80
2023-07-03T12:29:31.507Z,13.40
2023-07-03T12:32:08.321Z,12.10
2023-07-03T12:34:40.130Z,13.00
2023-07-03T12:37:15.858Z,13.70
2023-07-03T12:39:43.851Z,17.90
2023-07-03T12:42:14.712Z,14.20
2023-07-03T12:44:41.497Z,13.80
2023-07-03T12:47:10.900Z,14.90
2023-07-03T12:49:54.538Z,11.00
2023-07-03T12:52:25.948Z,16.50
2023-07-03T12:55:01.673Z,13.10
2023-07-03T12:57:38.276Z,14.40
2023-07-03T13:00:07.045Z,10.70
2023-07-03T13:02:36.038Z,13.60
2023-07-03T13:05:07.708Z,13.20
2023-07-03T13:07:35.280Z,19.20
2023-07-03T13:10:12.318Z,17.30
2023-07-03T13:12:39.295Z,14.60
2023-07-03T13:15:31.617Z,13.50
2023-07-03T13:18:08.124Z,12.70
2023-07-03T13:20:35.449Z,16.90
2023-07-03T13:23:05.846Z,11.40
2023-07-03T13:25:37.080Z,15.10
2023-07-03T13:37:25.518Z,13.40
2023-07-03T13:40:01.024Z,11.60
2023-07-03T13:42:31.446Z,13.50
2023-07-03T13:44:59.590Z,23.60
2023-07-03T13:47:29.346Z,19.40
2023-07-03T13:49:58.081Z,15.00
2023-07-03T13:52:26.069Z,10.80
2023-07-03T13:54:54.069Z,13.00
2023-07-03T13:57:22.127Z,12.00
2023-07-03T13:59:50.069Z,25.50
2023-07-03T14:02:18.129Z,12.70
2023-07-03T14:04:46.278Z,14.60
2023-07-03T14:07:14.246Z,14.10
2023-07-03T14:09:42.288Z,12.40
2023-07-03T14:12:10.240Z,14.00
2023-07-03T14:14:38.221Z,13.90
2023-07-03T14:17:06.375Z,17.20
2023-07-03T14:19:35.189Z,13.70
2023-07-03T14:22:03.279Z,19.90
2023-07-03T14:24:31.459Z,12.40
2023-07-03T14:27:01.198Z,17.50
2023-07-03T14:29:29.417Z,13.10
2023-07-03T14:31:58.246Z,15.70
2023-07-03T14:34:26.921Z,12.30
2023-07-03T14:36:54.902Z,15.10
2023-07-03T14:39:22.896Z,15.50
2023-07-03T14:41:50.996Z,12.00
2023-07-03T14:44:19.413Z,13.20
2023-07-03T14:46:47.465Z,15.00
2023-07-03T14:49:15.781Z,16.60
2023-07-03T14:51:43.816Z,20.00
2023-07-03T14:54:11.980Z,18.50
2023-07-03T14:56:40.573Z,22.70
2023-07-03T14:59:08.595Z,18.00
2023-07-03T15:01:44.523Z,22.00
2023-07-03T15:04:13.382Z,21.10
2023-07-03T15:06:50.866Z,14.40
2023-07-03T15:09:18.900Z,18.90
2023-07-03T15:11:50.537Z,15.10
2023-07-03T15:14:19.210Z,15.80
2023-07-03T15:16:47.158Z,17.50
2023-07-03T15:19:15.209Z,18.30
2023-07-03T15:21:43.156Z,13.90
2023-07-03T15:24:11.180Z,15.40
2023-07-03T15:26:42.066Z,12.70
2023-07-03T15:29:12.730Z,15.40
2023-07-03T15:31:42.407Z,26.00
2023-07-03T15:34:10.628Z,16.50
2023-07-03T15:36:38.644Z,17.20
2023-07-03T15:39:07.581Z,15.00
2023-07-03T15:41:35.692Z,21.90
2023-07-03T15:44:03.987Z,13.70
2023-07-03T15:46:33.820Z,15.50
2023-07-03T15:49:01.833Z,17.60
2023-07-03T15:51:32.807Z,16.00
2023-07-03T15:54:01.639Z,14.00
2023-07-03T15:56:31.887Z,17.80
2023-07-03T15:59:04.498Z,13.20
2023-07-03T16:01:32.641Z,16.90
2023-07-03T16:04:01.904Z,14.80
2023-07-03T16:06:34.688Z,13.80
2023-07-03T16:09:03.539Z,16.10
2023-07-03T16:11:38.223Z,17.40
2023-07-03T16:14:06.307Z,21.40
2023-07-03T16:16:34.296Z,11.80
2023-07-03T16:19:04.524Z,16.90
2023-07-03T16:21:34.721Z,17.50
2023-07-03T16:24:04.735Z,13.80
2023-07-03T16:26:32.919Z,20.30
2023-07-03T16:29:01.073Z,15.70
2023-07-03T16:31:30.870Z,12.10
2023-07-03T16:34:01.052Z,9.60
2023-07-03T16:36:31.514Z,15.80
2023-07-03T16:39:03.788Z,14.30
2023-07-03T16:41:35.926Z,16.00
2023-07-03T16:44:03.942Z,16.50
2023-07-03T16:46:32.028Z,10.40
2023-07-03T16:49:00.784Z,14.30
2023-07-03T16:51:29.177Z,10.80
2023-07-03T16:53:57.690Z,19.00
2023-07-03T16:56:30.267Z,17.50
2023-07-03T16:58:59.141Z,14.20
2023-07-03T17:01:29.518Z,12.30
2023-07-03T17:03:58.234Z,14.20
2023-07-03T17:06:32.884Z,12.50
2023-07-03T17:09:02.494Z,10.70
2023-07-03T17:11:31.504Z,11.70
2023-07-03T17:14:00.888Z,16.10
2023-07-03T17:16:30.621Z,9.20
2023-07-03T17:18:58.778Z,11.20
2023-07-03T17:21:26.865Z,10.70
2023-07-03T17:24:03.725Z,9.80
2023-07-03T17:26:35.243Z,12.20
2023-07-03T17:29:04.926Z,8.00
2023-07-03T17:31:33.711Z,18.60
2023-07-03T17:34:01.881Z,12.30
2023-07-03T17:36:30.129Z,10.10
2023-07-03T17:38:58.197Z,13.70
2023-07-03T17:41:26.451Z,13.30
2023-07-03T17:43:54.368Z,9.30
2023-07-03T17:46:22.440Z,9.80
2023-07-03T17:48:51.106Z,11.00
2023-07-03T17:51:19.116Z,15.30
2023-07-03T17:53:48.515Z,22.00
2023-07-03T17:56:16.514Z,25.40
2023-07-03T17:58:44.747Z,29.90
2023-07-03T18:01:16.760Z,24.00
2023-07-03T18:03:47.834Z,34.80
2023-07-03T18:06:15.983Z,36.00
2023-07-03T18:08:43.983Z,22.30
2023-07-03T18:11:13.925Z,25.30
2023-07-03T18:13:43.682Z,27.60
2023-07-03T18:16:11.723Z,23.80
2023-07-03T18:18:39.981Z,33.80
2023-07-03T18:21:08.093Z,30.80
2023-07-03T18:23:36.136Z,22.00
2023-07-03T18:26:04.266Z,13.10
2023-07-03T18:28:32.419Z,13.80
2023-07-03T18:31:03.221Z,13.40
2023-07-03T18:33:33.298Z,12.40
2023-07-03T18:36:03.823Z,9.60
2023-07-03T18:38:32.334Z,14.10
2023-07-03T18:41:04.733Z,11.50
2023-07-03T18:43:32.787Z,9.90
2023-07-03T18:46:00.856Z,11.90
2023-07-03T18:48:29.390Z,11.20
2023-07-03T18:50:57.342Z,9.90
2023-07-03T18:53:25.797Z,11.80
2023-07-03T18:55:54.042Z,9.60
2023-07-03T18:58:22.281Z,13.10
2023-07-03T19:00:50.515Z,13.80
2023-07-03T19:03:20.377Z,13.20
2023-07-03T19:05:50.263Z,14.60
2023-07-03T19:08:19.241Z,13.70
2023-07-03T19:10:47.897Z,15.00
2023-07-03T19:13:15.965Z,12.70
2023-07-03T19:15:44.811Z,11.00
2023-07-03T19:18:15.070Z,10.30
2023-07-03T19:20:43.214Z,12.70
2023-07-03T19:23:14.782Z,10.50
2023-07-03T19:25:43.256Z,11.80
2023-07-03T19:28:11.347Z,13.70
2023-07-03T19:30:39.293Z,12.40
2023-07-03T19:33:07.439Z,11.50
2023-07-03T19:35:37.725Z,13.60
2023-07-03T19:38:09.338Z,12.70
2023-07-03T19:40:39.017Z,14.40
2023-07-03T19:43:07.767Z,13.30
2023-07-03T19:45:37.054Z,14.10
2023-07-03T19:48:06.900Z,12.60
2023-07-03T19:50:38.130Z,11.90
2023-07-03T19:53:08.563Z,10.30
2023-07-03T19:55:37.861Z,11.10
2023-07-03T19:58:06.159Z,11.80
2023-07-03T20:00:34.370Z,10.10
2023-07-03T20:03:03.960Z,13.10
2023-07-03T20:05:36.290Z,11.50
2023-07-03T20:08:04.433Z,13.40
2023-07-03T20:10:32.371Z,10.40
2023-07-03T20:13:00.718Z,9.10
2023-07-03T20:15:28.687Z,17.60
2023-07-03T20:17:57.235Z,11.80
2023-07-03T20:20:25.790Z,12.80
2023-07-03T20:22:53.827Z,9.80
2023-07-03T20:25:21.883Z,9.80
2023-07-03T20:27:51.376Z,11.40
2023-07-03T20:30:19.536Z,11.80
2023-07-03T20:32:49.166Z,11.30
2023-07-03T20:35:17.500Z,13.70
2023-07-03T20:37:45.438Z,11.50
2023-07-03T20:40:14.400Z,13.40
2023-07-03T20:42:42.390Z,14.50
2023-07-03T20:45:10.571Z,13.70
2023-07-03T20:47:38.663Z,10.70
2023-07-03T20:50:07.612Z,12.60
2023-07-03T20:52:41.053Z,9.10
2023-07-03T20:55:36.694Z,13.40
2023-07-03T20:58:04.831Z,10.40
2023-07-03T21:00:32.799Z,8.80
2023-07-03T21:03:00.951Z,8.60
2023-07-03T21:05:29.339Z,10.20
2023-07-03T21:07:57.828Z,8.50
2023-07-03T21:10:25.905Z,11.00
2023-07-03T21:12:54.376Z,10.40
2023-07-03T21:15:23.129Z,10.50
2023-07-03T21:18:00.947Z,11.70
2023-07-03T21:20:43.649Z,11.20
2023-07-03T21:23:11.805Z,14.20
2023-07-03T21:25:39.806Z,13.20
2023-07-03T21:28:07.858Z,9.60
2023-07-03T21:30:41.999Z,10.40
2023-07-03T21:33:11.727Z,15.90
2023-07-03T21:35:40.065Z,11.60
2023-07-03T21:38:07.990Z,13.40
2023-07-03T21:40:35.933Z,12.80
2023-07-03T21:43:03.918Z,12.60
2023-07-03T21:45:34.149Z,11.60
2023-07-03T21:48:02.251Z,8.60
2023-07-03T21:50:30.382Z,10.50
2023-07-03T21:52:58.457Z,11.20
2023-07-03T21:55:26.361Z,10.80
2023-07-03T21:57:54.423Z,12.60
2023-07-03T22:00:22.362Z,10.50
2023-07-03T22:02:50.657Z,9.50
2023-07-03T22:05:18.850Z,12.60
2023-07-03T22:07:49.096Z,9.20
2023-07-03T22:10:17.379Z,15.00
2023-07-03T22:12:45.359Z,9.50
2023-07-03T22:15:13.372Z,10.60
2023-07-03T22:17:41.405Z,10.50
2023-07-03T22:20:10.128Z,11.30
2023-07-03T22:22:38.679Z,11.30
2023-07-03T22:25:08.185Z,11.90
2023-07-03T22:27:36.278Z,13.20
2023-07-03T22:30:04.639Z,11.40
2023-07-03T22:32:32.655Z,13.70
2023-07-03T22:35:00.726Z,12.80
2023-07-03T22:37:28.929Z,15.40
2023-07-03T22:39:57.007Z,15.90
2023-07-03T22:42:25.044Z,11.30
2023-07-03T22:44:53.042Z,13.50
2023-07-03T22:47:21.130Z,14.30
2023-07-03T22:49:49.133Z,13.30
2023-07-03T22:52:17.075Z,15.50
2023-07-03T22:54:48.186Z,14.10
2023-07-03T22:57:16.121Z,16.00
2023-07-03T22:59:44.333Z,10.00
2023-07-03T23:02:14.393Z,13.80
2023-07-03T23:04:42.742Z,13.20
2023-07-03T23:07:10.699Z,11.80
2023-07-03T23:09:40.210Z,9.90
2023-07-03T23:12:09.823Z,16.70
2023-07-03T23:14:37.839Z,13.20
2023-07-03T23:17:06.279Z,12.10
2023-07-03T23:19:34.940Z,16.90
2023-07-03T23:22:03.096Z,10.00
2023-07-03T23:24:31.034Z,11.10
2023-07-03T23:26:59.200Z,12.20
2023-07-03T23:29:27.234Z,13.90
2023-07-03T23:31:55.641Z,11.70
2023-07-03T23:34:23.942Z,10.40
2023-07-03T23:36:52.179Z,13.30
2023-07-03T23:39:21.206Z,14.90
2023-07-03T23:41:49.589Z,15.10
2023-07-03T23:44:17.493Z,10.50
2023-07-03T23:46:45.546Z,13.90
2023-07-03T23:49:13.543Z,11.20
2023-07-03T23:51:41.830Z,12.00
2023-07-03T23:54:10.863Z,13.70
2023-07-03T23:56:39.480Z,12.50
2023-07-03T23:59:08.076Z,10.50
